sensor_id;sensor_type;location;lat;lon;timestamp;pressure;altitude;pressure_sealevel;temperature;humidity
51526;BME280;37611;51.794;21.590;2023-02-02T00:01:54;98731.74;;;1.03;100.00
51526;BME280;37611;51.794;21.590;2023-02-02T00:05:56;98728.77;;;0.97;100.00
51526;BME280;37611;51.794;21.590;2023-02-02T00:09:58;98723.38;;;0.95;100.00
51526;BME280;37611;51.794;21.590;2023-02-02T00:13:59;98717.96;;;0.98;100.00
51526;BME280;37611;51.794;21.590;2023-02-02T00:18:01;98715.00;;;0.92;100.00
51526;BME280;37611;51.794;21.590;2023-02-02T00:22:03;98716.33;;;0.82;100.00
51526;BME280;37611;51.794;21.590;2023-02-02T00:26:05;98720.77;;;0.80;100.00
51526;BME280;37611;51.794;21.590;2023-02-02T00:30:08;98717.14;;;0.76;100.00
51526;BME280;37611;51.794;21.590;2023-02-02T00:34:11;98721.60;;;0.72;100.00
51526;BME280;37611;51.794;21.590;2023-02-02T00:38:13;98718.96;;;0.68;100.00
51526;BME280;37611;51.794;21.590;2023-02-02T00:42:15;98715.45;;;0.71;100.00
51526;BME280;37611;51.794;21.590;2023-02-02T00:46:17;98715.34;;;0.79;100.00
51526;BME280;37611;51.794;21.590;2023-02-02T00:50:20;98717.08;;;0.88;100.00
51526;BME280;37611;51.794;21.590;2023-02-02T00:54:22;98720.95;;;0.91;100.00
51526;BME280;37611;51.794;21.590;2023-02-02T00:58:23;98715.78;;;0.95;100.00
51526;BME280;37611;51.794;21.590;2023-02-02T01:02:25;98705.43;;;0.97;100.00
51526;BME280;37611;51.794;21.590;2023-02-02T01:06:27;98698.23;;;1.01;100.00
51526;BME280;37611;51.794;21.590;2023-02-02T01:10:29;98693.00;;;0.97;100.00
51526;BME280;37611;51.794;21.590;2023-02-02T01:14:30;98692.88;;;0.97;100.00
51526;BME280;37611;51.794;21.590;2023-02-02T01:18:32;98702.33;;;1.00;100.00
51526;BME280;37611;51.794;21.590;2023-02-02T01:22:34;98703.70;;;1.08;100.00
51526;BME280;37611;51.794;21.590;2023-02-02T01:26:35;98709.08;;;1.18;100.00
51526;BME280;37611;51.794;21.590;2023-02-02T01:30:37;98713.45;;;1.29;100.00
51526;BME280;37611;51.794;21.590;2023-02-02T01:34:39;98713.06;;;1.40;100.00
51526;BME280;37611;51.794;21.590;2023-02-02T01:38:42;98709.48;;;1.50;100.00
51526;BME280;37611;51.794;21.590;2023-02-02T01:42:44;98703.19;;;1.55;100.00
51526;BME280;37611;51.794;21.590;2023-02-02T01:46:46;98705.54;;;1.60;100.00
51526;BME280;37611;51.794;21.590;2023-02-02T01:50:50;98707.56;;;1.64;100.00
51526;BME280;37611;51.794;21.590;2023-02-02T01:54:58;98703.81;;;1.70;100.00
51526;BME280;37611;51.794;21.590;2023-02-02T01:59:02;98705.52;;;1.73;100.00
51526;BME280;37611;51.794;21.590;2023-02-02T02:03:11;98697.90;;;1.77;100.00
51526;BME280;37611;51.794;21.590;2023-02-02T02:07:14;98695.66;;;1.77;100.00
51526;BME280;37611;51.794;21.590;2023-02-02T02:11:16;98693.89;;;1.75;100.00
51526;BME280;37611;51.794;21.590;2023-02-02T02:15:19;98690.83;;;1.73;100.00
51526;BME280;37611;51.794;21.590;2023-02-02T02:25:08;98692.05;;;1.77;100.00
51526;BME280;37611;51.794;21.590;2023-02-02T02:34:02;98693.79;;;1.83;100.00
51526;BME280;37611;51.794;21.590;2023-02-02T02:38:15;98696.18;;;1.81;100.00
51526;BME280;37611;51.794;21.590;2023-02-02T02:42:23;98698.24;;;1.75;100.00
51526;BME280;37611;51.794;21.590;2023-02-02T02:46:27;98697.95;;;1.72;100.00
51526;BME280;37611;51.794;21.590;2023-02-02T02:50:29;98701.88;;;1.70;100.00
51526;BME280;37611;51.794;21.590;2023-02-02T02:54:36;98701.50;;;1.65;100.00
51526;BME280;37611;51.794;21.590;2023-02-02T02:58:57;98705.27;;;1.59;100.00
51526;BME280;37611;51.794;21.590;2023-02-02T03:07:40;98711.67;;;1.44;100.00
51526;BME280;37611;51.794;21.590;2023-02-02T03:11:43;98715.30;;;1.41;100.00
51526;BME280;37611;51.794;21.590;2023-02-02T03:15:45;98714.38;;;1.44;100.00
51526;BME280;37611;51.794;21.590;2023-02-02T03:19:47;98716.40;;;1.47;100.00
51526;BME280;37611;51.794;21.590;2023-02-02T03:23:48;98714.70;;;1.49;100.00
51526;BME280;37611;51.794;21.590;2023-02-02T03:27:50;98718.31;;;1.51;100.00
51526;BME280;37611;51.794;21.590;2023-02-02T03:31:53;98717.48;;;1.53;100.00
51526;BME280;37611;51.794;21.590;2023-02-02T03:35:54;98716.54;;;1.54;100.00
51526;BME280;37611;51.794;21.590;2023-02-02T03:39:56;98721.88;;;1.56;100.00
51526;BME280;37611;51.794;21.590;2023-02-02T03:43:58;98719.45;;;1.57;100.00
51526;BME280;37611;51.794;21.590;2023-02-02T03:48:02;98718.39;;;1.59;100.00
51526;BME280;37611;51.794;21.590;2023-02-02T03:52:04;98720.41;;;1.63;100.00
51526;BME280;37611;51.794;21.590;2023-02-02T03:56:06;98724.60;;;1.63;100.00
51526;BME280;37611;51.794;21.590;2023-02-02T04:00:09;98726.19;;;1.64;100.00
51526;BME280;37611;51.794;21.590;2023-02-02T04:04:11;98728.22;;;1.65;100.00
51526;BME280;37611;51.794;21.590;2023-02-02T04:08:12;98727.48;;;1.68;100.00
51526;BME280;37611;51.794;21.590;2023-02-02T04:12:14;98725.96;;;1.71;100.00
51526;BME280;37611;51.794;21.590;2023-02-02T04:16:16;98727.36;;;1.73;100.00
51526;BME280;37611;51.794;21.590;2023-02-02T04:20:17;98719.59;;;1.76;100.00
51526;BME280;37611;51.794;21.590;2023-02-02T04:24:19;98721.73;;;1.81;100.00
51526;BME280;37611;51.794;21.590;2023-02-02T04:28:21;98720.64;;;1.79;100.00
51526;BME280;37611;51.794;21.590;2023-02-02T04:32:24;98718.61;;;1.79;100.00
51526;BME280;37611;51.794;21.590;2023-02-02T04:36:26;98721.58;;;1.77;100.00
51526;BME280;37611;51.794;21.590;2023-02-02T04:40:28;98721.44;;;1.76;100.00
51526;BME280;37611;51.794;21.590;2023-02-02T04:44:29;98719.84;;;1.77;100.00
51526;BME280;37611;51.794;21.590;2023-02-02T04:48:31;98724.91;;;1.80;100.00
51526;BME280;37611;51.794;21.590;2023-02-02T04:52:33;98728.17;;;1.82;100.00
51526;BME280;37611;51.794;21.590;2023-02-02T04:56:35;98728.60;;;1.85;100.00
51526;BME280;37611;51.794;21.590;2023-02-02T05:00:37;98729.11;;;1.88;100.00
51526;BME280;37611;51.794;21.590;2023-02-02T05:04:39;98734.98;;;1.92;100.00
51526;BME280;37611;51.794;21.590;2023-02-02T05:08:41;98735.15;;;1.93;100.00
51526;BME280;37611;51.794;21.590;2023-02-02T05:12:45;98736.36;;;1.96;100.00
51526;BME280;37611;51.794;21.590;2023-02-02T05:16:47;98740.68;;;1.98;100.00
51526;BME280;37611;51.794;21.590;2023-02-02T05:20:51;98744.38;;;1.99;100.00
51526;BME280;37611;51.794;21.590;2023-02-02T05:24:53;98746.19;;;1.98;100.00
51526;BME280;37611;51.794;21.590;2023-02-02T05:28:55;98744.46;;;1.94;100.00
51526;BME280;37611;51.794;21.590;2023-02-02T05:32:57;98747.63;;;1.91;100.00
51526;BME280;37611;51.794;21.590;2023-02-02T05:36:59;98751.07;;;1.91;100.00
51526;BME280;37611;51.794;21.590;2023-02-02T05:41:01;98751.59;;;1.93;100.00
51526;BME280;37611;51.794;21.590;2023-02-02T05:45:03;98754.67;;;1.95;100.00
51526;BME280;37611;51.794;21.590;2023-02-02T05:49:05;98758.62;;;1.96;100.00
51526;BME280;37611;51.794;21.590;2023-02-02T05:53:08;98759.27;;;1.96;100.00
51526;BME280;37611;51.794;21.590;2023-02-02T05:57:10;98761.23;;;1.95;100.00
51526;BME280;37611;51.794;21.590;2023-02-02T06:01:13;98759.61;;;1.99;100.00
51526;BME280;37611;51.794;21.590;2023-02-02T06:05:14;98765.71;;;2.04;100.00
51526;BME280;37611;51.794;21.590;2023-02-02T06:09:16;98762.55;;;2.03;100.00
51526;BME280;37611;51.794;21.590;2023-02-02T06:13:18;98765.48;;;1.99;100.00
51526;BME280;37611;51.794;21.590;2023-02-02T06:17:19;98766.89;;;1.94;100.00
51526;BME280;37611;51.794;21.590;2023-02-02T06:21:21;98769.11;;;1.88;100.00
51526;BME280;37611;51.794;21.590;2023-02-02T06:25:26;98769.30;;;1.88;100.00
51526;BME280;37611;51.794;21.590;2023-02-02T06:29:28;98771.77;;;1.89;100.00
51526;BME280;37611;51.794;21.590;2023-02-02T06:33:30;98770.30;;;1.90;100.00
51526;BME280;37611;51.794;21.590;2023-02-02T06:37:32;98769.61;;;1.94;100.00
51526;BME280;37611;51.794;21.590;2023-02-02T06:41:34;98769.63;;;2.01;100.00
51526;BME280;37611;51.794;21.590;2023-02-02T06:45:36;98771.84;;;2.05;100.00
51526;BME280;37611;51.794;21.590;2023-02-02T06:49:40;98769.21;;;2.06;100.00
51526;BME280;37611;51.794;21.590;2023-02-02T06:53:42;98767.45;;;2.02;100.00
51526;BME280;37611;51.794;21.590;2023-02-02T06:57:44;98767.48;;;1.99;100.00
51526;BME280;37611;51.794;21.590;2023-02-02T07:01:49;98764.08;;;1.97;100.00
51526;BME280;37611;51.794;21.590;2023-02-02T07:05:51;98763.77;;;1.98;100.00
51526;BME280;37611;51.794;21.590;2023-02-02T07:09:53;98765.06;;;1.99;100.00
51526;BME280;37611;51.794;21.590;2023-02-02T07:13:54;98768.37;;;2.05;100.00
51526;BME280;37611;51.794;21.590;2023-02-02T07:17:56;98767.27;;;2.12;100.00
51526;BME280;37611;51.794;21.590;2023-02-02T07:21:58;98767.66;;;2.16;100.00
51526;BME280;37611;51.794;21.590;2023-02-02T07:30:02;98766.63;;;2.22;100.00
51526;BME280;37611;51.794;21.590;2023-02-02T07:34:04;98766.56;;;2.25;100.00
51526;BME280;37611;51.794;21.590;2023-02-02T07:38:06;98760.27;;;2.15;100.00
51526;BME280;37611;51.794;21.590;2023-02-02T07:42:11;98756.65;;;2.07;100.00
51526;BME280;37611;51.794;21.590;2023-02-02T07:46:14;98756.99;;;2.03;100.00
51526;BME280;37611;51.794;21.590;2023-02-02T07:50:16;98756.13;;;2.05;100.00
51526;BME280;37611;51.794;21.590;2023-02-02T07:54:20;98750.91;;;2.05;100.00
51526;BME280;37611;51.794;21.590;2023-02-02T07:58:21;98750.34;;;2.06;100.00
51526;BME280;37611;51.794;21.590;2023-02-02T08:02:23;98751.67;;;2.09;100.00
51526;BME280;37611;51.794;21.590;2023-02-02T08:06:33;98747.61;;;2.12;100.00
51526;BME280;37611;51.794;21.590;2023-02-02T08:10:35;98746.13;;;2.17;100.00
51526;BME280;37611;51.794;21.590;2023-02-02T08:14:36;98742.41;;;2.18;100.00
51526;BME280;37611;51.794;21.590;2023-02-02T08:18:39;98737.13;;;2.21;100.00
51526;BME280;37611;51.794;21.590;2023-02-02T08:22:40;98739.75;;;2.25;100.00
51526;BME280;37611;51.794;21.590;2023-02-02T08:26:42;98740.27;;;2.27;100.00
51526;BME280;37611;51.794;21.590;2023-02-02T08:30:44;98734.98;;;2.26;100.00
51526;BME280;37611;51.794;21.590;2023-02-02T08:34:47;98732.61;;;2.26;100.00
51526;BME280;37611;51.794;21.590;2023-02-02T08:38:50;98730.83;;;2.26;100.00
51526;BME280;37611;51.794;21.590;2023-02-02T08:42:52;98728.67;;;2.31;100.00
51526;BME280;37611;51.794;21.590;2023-02-02T08:46:55;98727.70;;;2.35;100.00
51526;BME280;37611;51.794;21.590;2023-02-02T08:50:58;98727.27;;;2.32;100.00
51526;BME280;37611;51.794;21.590;2023-02-02T08:54:59;98729.98;;;2.22;100.00
51526;BME280;37611;51.794;21.590;2023-02-02T08:59:01;98735.02;;;2.20;100.00
51526;BME280;37611;51.794;21.590;2023-02-02T09:03:05;98734.98;;;2.22;100.00
51526;BME280;37611;51.794;21.590;2023-02-02T09:07:07;98734.64;;;2.22;100.00
51526;BME280;37611;51.794;21.590;2023-02-02T09:11:15;98733.91;;;2.25;100.00
51526;BME280;37611;51.794;21.590;2023-02-02T09:15:17;98730.98;;;2.26;100.00
51526;BME280;37611;51.794;21.590;2023-02-02T09:19:19;98730.70;;;2.28;100.00
51526;BME280;37611;51.794;21.590;2023-02-02T09:23:20;98730.52;;;2.28;100.00
51526;BME280;37611;51.794;21.590;2023-02-02T09:27:22;98731.13;;;2.29;100.00
51526;BME280;37611;51.794;21.590;2023-02-02T09:31:25;98730.92;;;2.27;100.00
51526;BME280;37611;51.794;21.590;2023-02-02T09:35:27;98732.89;;;2.27;100.00
51526;BME280;37611;51.794;21.590;2023-02-02T09:39:29;98730.54;;;2.26;100.00
51526;BME280;37611;51.794;21.590;2023-02-02T09:43:46;98727.59;;;2.26;100.00
51526;BME280;37611;51.794;21.590;2023-02-02T09:48:03;98725.52;;;2.26;100.00
51526;BME280;37611;51.794;21.590;2023-02-02T09:52:16;98727.77;;;2.30;100.00
51526;BME280;37611;51.794;21.590;2023-02-02T09:56:38;98726.04;;;2.32;100.00
51526;BME280;37611;51.794;21.590;2023-02-02T10:00:47;98728.02;;;2.31;100.00
51526;BME280;37611;51.794;21.590;2023-02-02T10:05:03;98729.42;;;2.41;100.00
51526;BME280;37611;51.794;21.590;2023-02-02T10:09:29;98731.33;;;2.49;100.00
51526;BME280;37611;51.794;21.590;2023-02-02T10:13:37;98729.77;;;2.49;100.00
51526;BME280;37611;51.794;21.590;2023-02-02T10:22:18;98735.80;;;2.45;100.00
51526;BME280;37611;51.794;21.590;2023-02-02T10:30:45;98734.84;;;2.48;100.00
51526;BME280;37611;51.794;21.590;2023-02-02T10:35:02;98738.15;;;2.50;100.00
51526;BME280;37611;51.794;21.590;2023-02-02T10:39:12;98740.52;;;2.55;100.00
51526;BME280;37611;51.794;21.590;2023-02-02T10:47:49;98750.84;;;2.61;100.00
51526;BME280;37611;51.794;21.590;2023-02-02T10:56:52;98758.67;;;2.62;100.00
51526;BME280;37611;51.794;21.590;2023-02-02T11:00:58;98763.16;;;2.68;100.00
51526;BME280;37611;51.794;21.590;2023-02-02T11:05:02;98765.83;;;2.74;100.00
51526;BME280;37611;51.794;21.590;2023-02-02T11:09:36;98766.95;;;2.79;100.00
51526;BME280;37611;51.794;21.590;2023-02-02T11:14:03;98775.68;;;2.84;100.00
51526;BME280;37611;51.794;21.590;2023-02-02T11:18:13;98773.25;;;2.84;100.00
51526;BME280;37611;51.794;21.590;2023-02-02T11:22:33;98777.33;;;2.79;100.00
51526;BME280;37611;51.794;21.590;2023-02-02T11:26:49;98786.57;;;2.74;100.00
51526;BME280;37611;51.794;21.590;2023-02-02T11:30:52;98790.13;;;2.68;100.00
51526;BME280;37611;51.794;21.590;2023-02-02T11:39:31;98796.40;;;2.74;100.00
51526;BME280;37611;51.794;21.590;2023-02-02T11:43:36;98802.52;;;2.73;100.00
51526;BME280;37611;51.794;21.590;2023-02-02T11:47:45;98803.60;;;2.75;100.00
51526;BME280;37611;51.794;21.590;2023-02-02T11:52:05;98810.56;;;2.82;100.00
51526;BME280;37611;51.794;21.590;2023-02-02T11:56:17;98822.95;;;2.89;100.00
51526;BME280;37611;51.794;21.590;2023-02-02T12:00:22;98833.52;;;2.92;100.00
51526;BME280;37611;51.794;21.590;2023-02-02T12:04:28;98839.41;;;2.92;100.00
51526;BME280;37611;51.794;21.590;2023-02-02T12:08:31;98848.52;;;2.87;100.00
51526;BME280;37611;51.794;21.590;2023-02-02T12:16:48;98857.82;;;2.85;100.00
51526;BME280;37611;51.794;21.590;2023-02-02T12:29:43;98879.84;;;3.07;100.00
51526;BME280;37611;51.794;21.590;2023-02-02T13:13:06;98962.30;;;2.85;100.00
51526;BME280;37611;51.794;21.590;2023-02-02T13:17:32;98963.52;;;2.85;100.00
51526;BME280;37611;51.794;21.590;2023-02-02T13:21:37;98973.67;;;2.79;100.00
51526;BME280;37611;51.794;21.590;2023-02-02T13:25:46;98981.55;;;2.76;100.00
51526;BME280;37611;51.794;21.590;2023-02-02T13:34:03;98990.70;;;2.63;100.00
51526;BME280;37611;51.794;21.590;2023-02-02T13:38:22;99000.90;;;2.63;100.00
51526;BME280;37611;51.794;21.590;2023-02-02T13:43:02;99006.20;;;2.64;100.00
51526;BME280;37611;51.794;21.590;2023-02-02T13:47:15;99008.71;;;2.67;100.00
51526;BME280;37611;51.794;21.590;2023-02-02T13:51:47;99019.33;;;2.68;100.00
51526;BME280;37611;51.794;21.590;2023-02-02T14:00:27;99038.48;;;2.60;100.00
51526;BME280;37611;51.794;21.590;2023-02-02T14:04:34;99043.66;;;2.62;100.00
51526;BME280;37611;51.794;21.590;2023-02-02T14:08:43;99054.16;;;2.63;100.00
51526;BME280;37611;51.794;21.590;2023-02-02T14:12:46;99064.29;;;2.60;100.00
51526;BME280;37611;51.794;21.590;2023-02-02T14:16:49;99073.23;;;2.54;100.00
51526;BME280;37611;51.794;21.590;2023-02-02T14:20:51;99088.89;;;2.39;100.00
51526;BME280;37611;51.794;21.590;2023-02-02T14:24:53;99095.95;;;2.33;100.00
51526;BME280;37611;51.794;21.590;2023-02-02T14:28:55;99109.06;;;2.29;100.00
51526;BME280;37611;51.794;21.590;2023-02-02T14:33:25;99114.73;;;2.25;100.00
51526;BME280;37611;51.794;21.590;2023-02-02T14:37:55;99128.96;;;2.22;100.00
51526;BME280;37611;51.794;21.590;2023-02-02T14:42:18;99137.98;;;2.19;100.00
51526;BME280;37611;51.794;21.590;2023-02-02T14:46:43;99149.63;;;2.23;100.00
51526;BME280;37611;51.794;21.590;2023-02-02T14:54:52;99173.48;;;2.36;100.00
51526;BME280;37611;51.794;21.590;2023-02-02T14:58:58;99183.61;;;2.39;100.00
51526;BME280;37611;51.794;21.590;2023-02-02T15:07:52;99205.75;;;2.41;100.00
51526;BME280;37611;51.794;21.590;2023-02-02T15:16:23;99230.00;;;2.29;100.00
51526;BME280;37611;51.794;21.590;2023-02-02T15:20:40;99237.70;;;2.28;100.00
51526;BME280;37611;51.794;21.590;2023-02-02T15:24:45;99246.68;;;2.26;100.00
51526;BME280;37611;51.794;21.590;2023-02-02T15:29:06;99257.36;;;2.26;100.00
51526;BME280;37611;51.794;21.590;2023-02-02T15:33:30;99272.66;;;2.27;100.00
51526;BME280;37611;51.794;21.590;2023-02-02T15:37:38;99282.21;;;2.31;100.00
51526;BME280;37611;51.794;21.590;2023-02-02T15:41:43;99297.05;;;2.33;100.00
51526;BME280;37611;51.794;21.590;2023-02-02T15:45:52;99306.70;;;2.29;100.00
51526;BME280;37611;51.794;21.590;2023-02-02T15:49:54;99316.29;;;2.24;100.00
51526;BME280;37611;51.794;21.590;2023-02-02T15:53:56;99326.58;;;2.17;100.00
51526;BME280;37611;51.794;21.590;2023-02-02T15:57:58;99337.91;;;2.11;100.00
51526;BME280;37611;51.794;21.590;2023-02-02T16:06:11;99353.58;;;2.12;100.00
51526;BME280;37611;51.794;21.590;2023-02-02T16:10:19;99366.52;;;2.10;100.00
51526;BME280;37611;51.794;21.590;2023-02-02T16:14:21;99370.67;;;2.14;100.00
51526;BME280;37611;51.794;21.590;2023-02-02T16:18:24;99380.98;;;2.20;100.00
51526;BME280;37611;51.794;21.590;2023-02-02T16:22:26;99394.55;;;2.26;100.00
51526;BME280;37611;51.794;21.590;2023-02-02T16:26:32;99410.42;;;2.31;100.00
51526;BME280;37611;51.794;21.590;2023-02-02T16:30:38;99419.32;;;2.17;100.00
51526;BME280;37611;51.794;21.590;2023-02-02T16:38:42;99435.23;;;1.86;100.00
51526;BME280;37611;51.794;21.590;2023-02-02T16:42:44;99448.06;;;1.71;100.00
51526;BME280;37611;51.794;21.590;2023-02-02T16:46:47;99462.77;;;1.61;100.00
51526;BME280;37611;51.794;21.590;2023-02-02T16:55:08;99480.04;;;1.56;100.00
51526;BME280;37611;51.794;21.590;2023-02-02T16:59:26;99490.95;;;1.55;100.00
51526;BME280;37611;51.794;21.590;2023-02-02T17:03:34;99497.52;;;1.58;100.00
51526;BME280;37611;51.794;21.590;2023-02-02T17:07:38;99509.27;;;1.58;100.00
51526;BME280;37611;51.794;21.590;2023-02-02T17:11:58;99518.14;;;1.54;100.00
51526;BME280;37611;51.794;21.590;2023-02-02T17:16:00;99520.52;;;1.47;100.00
51526;BME280;37611;51.794;21.590;2023-02-02T17:20:03;99527.20;;;1.38;100.00
51526;BME280;37611;51.794;21.590;2023-02-02T17:24:07;99540.54;;;1.27;100.00
51526;BME280;37611;51.794;21.590;2023-02-02T17:28:12;99551.03;;;1.14;100.00
51526;BME280;37611;51.794;21.590;2023-02-02T17:32:14;99559.67;;;1.06;100.00
51526;BME280;37611;51.794;21.590;2023-02-02T17:36:16;99566.87;;;1.02;100.00
51526;BME280;37611;51.794;21.590;2023-02-02T17:40:20;99574.74;;;0.97;100.00
51526;BME280;37611;51.794;21.590;2023-02-02T17:44:22;99585.05;;;0.95;100.00
51526;BME280;37611;51.794;21.590;2023-02-02T17:48:24;99587.54;;;0.94;100.00
51526;BME280;37611;51.794;21.590;2023-02-02T17:52:25;99600.22;;;0.96;100.00
51526;BME280;37611;51.794;21.590;2023-02-02T17:56:29;99603.21;;;0.97;100.00
51526;BME280;37611;51.794;21.590;2023-02-02T18:00:31;99612.90;;;0.99;100.00
51526;BME280;37611;51.794;21.590;2023-02-02T18:04:34;99618.05;;;1.00;100.00
51526;BME280;37611;51.794;21.590;2023-02-02T18:08:36;99620.67;;;0.96;100.00
51526;BME280;37611;51.794;21.590;2023-02-02T18:12:38;99632.64;;;0.92;100.00
51526;BME280;37611;51.794;21.590;2023-02-02T18:16:40;99641.50;;;0.92;100.00
51526;BME280;37611;51.794;21.590;2023-02-02T18:20:43;99648.67;;;0.93;100.00
51526;BME280;37611;51.794;21.590;2023-02-02T18:24:45;99656.03;;;0.96;100.00
51526;BME280;37611;51.794;21.590;2023-02-02T18:28:48;99662.67;;;1.03;100.00
51526;BME280;37611;51.794;21.590;2023-02-02T18:32:50;99670.10;;;1.08;100.00
51526;BME280;37611;51.794;21.590;2023-02-02T18:36:53;99679.30;;;1.12;100.00
51526;BME280;37611;51.794;21.590;2023-02-02T18:41:01;99691.73;;;1.15;100.00
51526;BME280;37611;51.794;21.590;2023-02-02T18:45:09;99705.88;;;1.15;100.00
51526;BME280;37611;51.794;21.590;2023-02-02T18:49:11;99717.79;;;1.14;100.00
51526;BME280;37611;51.794;21.590;2023-02-02T18:53:16;99719.77;;;1.10;100.00
51526;BME280;37611;51.794;21.590;2023-02-02T18:57:23;99728.45;;;1.07;100.00
51526;BME280;37611;51.794;21.590;2023-02-02T19:01:25;99734.50;;;1.09;100.00
51526;BME280;37611;51.794;21.590;2023-02-02T19:05:27;99744.09;;;1.13;100.00
51526;BME280;37611;51.794;21.590;2023-02-02T19:09:47;99752.77;;;1.18;100.00
51526;BME280;37611;51.794;21.590;2023-02-02T19:13:49;99757.14;;;1.19;100.00
51526;BME280;37611;51.794;21.590;2023-02-02T19:17:52;99766.81;;;1.22;100.00
51526;BME280;37611;51.794;21.590;2023-02-02T19:21:57;99771.52;;;1.21;100.00
51526;BME280;37611;51.794;21.590;2023-02-02T19:26:16;99774.77;;;1.21;100.00
51526;BME280;37611;51.794;21.590;2023-02-02T19:30:20;99781.16;;;1.18;100.00
51526;BME280;37611;51.794;21.590;2023-02-02T19:34:22;99787.55;;;1.16;100.00
51526;BME280;37611;51.794;21.590;2023-02-02T19:38:26;99794.79;;;1.16;100.00
51526;BME280;37611;51.794;21.590;2023-02-02T19:42:29;99805.21;;;1.20;100.00
51526;BME280;37611;51.794;21.590;2023-02-02T19:46:35;99811.09;;;1.22;100.00
51526;BME280;37611;51.794;21.590;2023-02-02T19:50:40;99820.85;;;1.23;100.00
51526;BME280;37611;51.794;21.590;2023-02-02T19:54:42;99824.95;;;1.27;100.00
51526;BME280;37611;51.794;21.590;2023-02-02T19:58:50;99838.20;;;1.28;100.00
51526;BME280;37611;51.794;21.590;2023-02-02T20:06:59;99857.20;;;1.19;100.00
51526;BME280;37611;51.794;21.590;2023-02-02T20:15:35;99868.77;;;1.18;100.00
51526;BME280;37611;51.794;21.590;2023-02-02T20:19:40;99879.33;;;1.21;100.00
51526;BME280;37611;51.794;21.590;2023-02-02T20:23:46;99889.84;;;1.24;100.00
51526;BME280;37611;51.794;21.590;2023-02-02T20:27:48;99898.24;;;1.27;100.00
51526;BME280;37611;51.794;21.590;2023-02-02T20:31:52;99909.93;;;1.28;100.00
51526;BME280;37611;51.794;21.590;2023-02-02T20:35:54;99924.00;;;1.29;100.00
51526;BME280;37611;51.794;21.590;2023-02-02T20:40:00;99930.43;;;1.31;100.00
51526;BME280;37611;51.794;21.590;2023-02-02T20:44:02;99941.79;;;1.29;100.00
51526;BME280;37611;51.794;21.590;2023-02-02T20:48:04;99953.41;;;1.22;100.00
51526;BME280;37611;51.794;21.590;2023-02-02T20:52:10;99957.06;;;1.13;100.00
51526;BME280;37611;51.794;21.590;2023-02-02T20:56:13;99961.40;;;1.01;100.00
51526;BME280;37611;51.794;21.590;2023-02-02T21:00:16;99972.02;;;0.94;100.00
51526;BME280;37611;51.794;21.590;2023-02-02T21:04:20;99981.36;;;0.87;100.00
51526;BME280;37611;51.794;21.590;2023-02-02T21:08:25;99994.41;;;0.83;100.00
51526;BME280;37611;51.794;21.590;2023-02-02T21:12:26;100003.54;;;0.74;100.00
51526;BME280;37611;51.794;21.590;2023-02-02T21:16:28;100004.36;;;0.65;100.00
51526;BME280;37611;51.794;21.590;2023-02-02T21:20:33;100006.80;;;0.59;100.00
51526;BME280;37611;51.794;21.590;2023-02-02T21:24:34;100009.24;;;0.53;100.00
51526;BME280;37611;51.794;21.590;2023-02-02T21:28:36;100012.50;;;0.47;100.00
51526;BME280;37611;51.794;21.590;2023-02-02T21:32:54;100020.45;;;0.49;100.00
51526;BME280;37611;51.794;21.590;2023-02-02T21:36:57;100032.09;;;0.51;100.00
51526;BME280;37611;51.794;21.590;2023-02-02T21:41:10;100037.05;;;0.52;100.00
51526;BME280;37611;51.794;21.590;2023-02-02T21:49:31;100050.45;;;0.53;100.00
51526;BME280;37611;51.794;21.590;2023-02-02T21:53:36;100065.69;;;0.51;100.00
51526;BME280;37611;51.794;21.590;2023-02-02T21:57:37;100073.60;;;0.48;100.00
51526;BME280;37611;51.794;21.590;2023-02-02T22:01:43;100083.35;;;0.43;100.00
51526;BME280;37611;51.794;21.590;2023-02-02T22:05:45;100096.55;;;0.38;100.00
51526;BME280;37611;51.794;21.590;2023-02-02T22:09:47;100103.54;;;0.33;100.00
51526;BME280;37611;51.794;21.590;2023-02-02T22:13:51;100109.67;;;0.31;100.00
51526;BME280;37611;51.794;21.590;2023-02-02T22:17:53;100117.73;;;0.29;100.00
51526;BME280;37611;51.794;21.590;2023-02-02T22:22:21;100125.24;;;0.24;100.00
51526;BME280;37611;51.794;21.590;2023-02-02T22:26:32;100128.13;;;0.18;100.00
51526;BME280;37611;51.794;21.590;2023-02-02T22:30:36;100127.58;;;0.10;100.00
51526;BME280;37611;51.794;21.590;2023-02-02T22:34:38;100133.34;;;-0.02;100.00
51526;BME280;37611;51.794;21.590;2023-02-02T22:38:39;100131.39;;;-0.11;100.00
51526;BME280;37611;51.794;21.590;2023-02-02T22:42:41;100126.95;;;-0.18;100.00
51526;BME280;37611;51.794;21.590;2023-02-02T22:46:43;100136.20;;;-0.20;100.00
51526;BME280;37611;51.794;21.590;2023-02-02T22:50:45;100143.03;;;-0.22;100.00
51526;BME280;37611;51.794;21.590;2023-02-02T22:54:47;100151.79;;;-0.22;100.00
51526;BME280;37611;51.794;21.590;2023-02-02T22:58:49;100166.27;;;-0.22;100.00
51526;BME280;37611;51.794;21.590;2023-02-02T23:02:52;100176.59;;;-0.29;100.00
51526;BME280;37611;51.794;21.590;2023-02-02T23:06:54;100177.45;;;-0.36;100.00
51526;BME280;37611;51.794;21.590;2023-02-02T23:10:55;100182.05;;;-0.42;100.00
51526;BME280;37611;51.794;21.590;2023-02-02T23:14:57;100186.27;;;-0.50;100.00
51526;BME280;37611;51.794;21.590;2023-02-02T23:18:59;100188.11;;;-0.53;100.00
51526;BME280;37611;51.794;21.590;2023-02-02T23:23:00;100186.02;;;-0.53;100.00
51526;BME280;37611;51.794;21.590;2023-02-02T23:27:02;100195.59;;;-0.51;100.00
51526;BME280;37611;51.794;21.590;2023-02-02T23:31:04;100205.48;;;-0.53;100.00
51526;BME280;37611;51.794;21.590;2023-02-02T23:35:06;100211.97;;;-0.52;100.00
51526;BME280;37611;51.794;21.590;2023-02-02T23:39:08;100219.28;;;-0.50;100.00